Terminal Aerodrome Forecast
Issued by NWS Cleveland, OH

Home | Current Version | Previous Version | Text Only | Print | Product List | Glossary On
Versions: 1 2 3 4 5 6 7 8 9 10 11 12 13 14 15 16 17 18 19 20 21 22 23
343
FTUS41 KCLE 040541
TAFMFD
TAF
KMFD 040541Z 0406/0506 20005KT P6SM SCT100
     FM041200 20007KT P6SM BKN100
     FM041700 20010KT P6SM -SHRA OVC050
     FM041900 22010KT 5SM -SHRA OVC035
      TEMPO 0419/0421 26015G25KT 3SM TSRA OVC025CB
     FM042200 25007KT 3SM -SHRA BR OVC015=

USA.gov is the U.S. government's official web portal to all federal, state and local government web resources and services.